createdAt,value
2022-08-19T00:01:52.917Z,99515.72
2022-08-19T00:04:24.290Z,99513.53
2022-08-19T00:06:53.501Z,99510.16
2022-08-19T00:09:23.981Z,99508.34
2022-08-19T00:11:53.062Z,99510.78
2022-08-19T00:14:22.936Z,99504.50
2022-08-19T00:16:55.350Z,99503.00
2022-08-19T00:19:24.724Z,99506.13
2022-08-19T00:21:53.153Z,99514.56
2022-08-19T00:24:21.398Z,99514.09
2022-08-19T00:26:49.623Z,99513.25
2022-08-19T00:29:20.511Z,99518.66
2022-08-19T00:31:50.645Z,99518.16
2022-08-19T00:34:20.462Z,99520.81
2022-08-19T00:36:49.433Z,99518.38
2022-08-19T00:39:19.183Z,99519.47
2022-08-19T00:41:49.853Z,99522.44
2022-08-19T00:44:21.406Z,99520.63
2022-08-19T00:46:58.181Z,99522.31
2022-08-19T00:49:33.753Z,99527.06
2022-08-19T00:52:06.597Z,99523.47
2022-08-19T00:54:35.417Z,99520.06
2022-08-19T00:57:07.364Z,99519.34
2022-08-19T00:59:58.799Z,99517.75
2022-08-19T01:02:28.236Z,99528.59
2022-08-19T01:04:58.274Z,99519.06
2022-08-19T01:07:26.865Z,99525.44
2022-08-19T01:09:55.764Z,99525.56
2022-08-19T01:12:24.513Z,99522.16
2022-08-19T01:14:53.572Z,99517.56
2022-08-19T01:17:22.583Z,99519.25
2022-08-19T01:19:50.723Z,99517.38
2022-08-19T01:22:33.435Z,99524.00
2022-08-19T01:25:02.557Z,99512.84
2022-08-19T01:27:43.211Z,99524.59
2022-08-19T01:30:17.063Z,99523.41
2022-08-19T01:32:45.333Z,99533.72
2022-08-19T01:35:15.136Z,99531.78
2022-08-19T01:37:47.693Z,99524.66
2022-08-19T01:40:17.270Z,99524.66
2022-08-19T01:42:45.513Z,99521.13
2022-08-19T01:45:13.713Z,99528.38
2022-08-19T01:47:42.332Z,99529.34
2022-08-19T01:50:12.390Z,99532.97
2022-08-19T01:52:41.392Z,99521.50
2022-08-19T01:55:14.143Z,99517.03
2022-08-19T01:57:44.943Z,99524.28
2022-08-19T02:00:17.093Z,99530.44
2022-08-19T02:02:45.373Z,99525.00
2022-08-19T02:05:14.483Z,99519.69
2022-08-19T02:07:43.285Z,99532.97
2022-08-19T02:10:17.233Z,99524.28
2022-08-19T02:12:45.778Z,99520.66
2022-08-19T02:15:16.122Z,99538.50
2022-08-19T02:17:44.663Z,99538.50
2022-08-19T02:20:14.482Z,99535.97
2022-08-19T02:22:43.573Z,99531.50
2022-08-19T02:25:15.854Z,99542.38
2022-08-19T02:27:44.953Z,99545.16
2022-08-19T02:30:20.068Z,99548.66
2022-08-19T02:32:48.672Z,99547.06
2022-08-19T02:35:17.454Z,99554.19
2022-08-19T02:38:03.271Z,99544.66
2022-08-19T02:40:35.448Z,99544.13
2022-08-19T02:43:03.961Z,99552.44
2022-08-19T02:45:34.304Z,99540.34
2022-08-19T02:48:02.553Z,99548.63
2022-08-19T02:50:40.043Z,99545.38
2022-08-19T02:53:19.831Z,99558.88
2022-08-19T02:55:50.013Z,99558.13
2022-08-19T02:58:19.345Z,99559.31
2022-08-19T03:00:50.531Z,99546.25
2022-08-19T03:03:19.711Z,99552.97
2022-08-19T03:05:56.468Z,99553.47
2022-08-19T03:08:26.845Z,99555.72
2022-08-19T03:10:56.553Z,99561.69
2022-08-19T03:13:25.421Z,99560.66
2022-08-19T03:15:53.543Z,99560.66
2022-08-19T03:18:23.153Z,99558.94
2022-08-19T03:20:55.593Z,99564.91
2022-08-19T03:23:25.282Z,99574.69
2022-08-19T03:26:05.699Z,99569.78
2022-08-19T03:28:51.227Z,99576.38
2022-08-19T03:31:44.084Z,99579.31
2022-08-19T03:34:18.292Z,99583.16
2022-08-19T03:36:47.470Z,99577.19
2022-08-19T03:39:16.575Z,99582.06
2022-08-19T03:41:48.485Z,99579.75
2022-08-19T03:44:21.674Z,99588.97
2022-08-19T03:46:52.282Z,99586.63
2022-08-19T03:49:21.743Z,99581.41
2022-08-19T03:51:57.873Z,99576.31
2022-08-19T03:54:27.402Z,99583.34
2022-08-19T03:56:57.960Z,99579.06
2022-08-19T03:59:31.052Z,99584.28
2022-08-19T04:02:02.275Z,99587.78
2022-08-19T04:04:31.857Z,99587.03
2022-08-19T04:07:00.472Z,99585.63
2022-08-19T04:09:28.998Z,99584.91
2022-08-19T04:11:59.528Z,99593.94
2022-08-19T04:14:32.002Z,99600.19
2022-08-19T04:17:01.322Z,99597.72
2022-08-19T04:19:31.825Z,99595.19
2022-08-19T04:22:00.532Z,99602.59
2022-08-19T04:24:30.703Z,99606.41
2022-08-19T04:26:59.142Z,99603.28
2022-08-19T04:29:28.802Z,99606.16
2022-08-19T04:31:58.633Z,99605.50
2022-08-19T04:34:29.602Z,99612.94
2022-08-19T04:36:59.910Z,99608.03
2022-08-19T04:39:45.005Z,99614.56
2022-08-19T04:42:31.524Z,99622.91
2022-08-19T04:45:01.772Z,99634.97
2022-08-19T04:47:47.546Z,99633.34
2022-08-19T04:50:20.933Z,99639.03
2022-08-19T04:52:49.108Z,99639.53
2022-08-19T04:55:17.632Z,99647.84
2022-08-19T04:57:46.002Z,99647.38
2022-08-19T05:00:16.783Z,99651.94
2022-08-19T05:02:45.043Z,99659.97
2022-08-19T05:05:13.526Z,99660.72
2022-08-19T05:07:42.105Z,99657.72
2022-08-19T05:10:10.792Z,99657.91
2022-08-19T05:12:39.080Z,99669.06
2022-08-19T05:15:10.542Z,99668.03
2022-08-19T05:17:59.974Z,99661.94
2022-08-19T05:20:45.762Z,99664.72
2022-08-19T05:23:21.880Z,99668.31
2022-08-19T05:25:51.244Z,99668.50
2022-08-19T05:28:19.533Z,99675.88
2022-08-19T05:30:49.074Z,99676.00
2022-08-19T05:33:18.973Z,99677.59
2022-08-19T05:35:47.162Z,99677.59
2022-08-19T05:38:15.252Z,99685.44
2022-08-19T05:40:48.852Z,99677.59
2022-08-19T05:43:17.590Z,99692.44
2022-08-19T05:45:46.695Z,99697.66
2022-08-19T05:48:15.694Z,99702.75
2022-08-19T05:50:46.383Z,99714.91
2022-08-19T05:53:15.544Z,99714.78
2022-08-19T05:55:43.715Z,99718.94
2022-08-19T05:58:12.302Z,99717.91
2022-08-19T06:00:41.104Z,99711.66
2022-08-19T06:03:12.835Z,99720.38
2022-08-19T06:05:50.209Z,99724.16
2022-08-19T06:08:34.321Z,99726.81
2022-08-19T06:11:17.563Z,99728.69
2022-08-19T06:13:51.522Z,99740.06
2022-08-19T06:16:23.208Z,99744.22
2022-08-19T06:18:53.582Z,99751.06
2022-08-19T06:21:23.432Z,99747.50
2022-08-19T06:23:54.093Z,99747.06
2022-08-19T06:26:23.144Z,99743.38
2022-08-19T06:28:51.371Z,99743.09
2022-08-19T06:31:22.883Z,99742.75
2022-08-19T06:33:51.903Z,99755.53
2022-08-19T06:36:21.951Z,99751.53
2022-08-19T06:38:55.863Z,99755.69
2022-08-19T06:41:24.093Z,99745.44
2022-08-19T06:43:53.979Z,99755.19
2022-08-19T06:46:22.303Z,99756.19
2022-08-19T06:48:54.293Z,99761.69
2022-08-19T06:51:24.911Z,99771.59
2022-08-19T06:53:56.715Z,99768.34
2022-08-19T06:56:31.941Z,99765.19
2022-08-19T06:59:00.773Z,99780.50
2022-08-19T07:01:29.123Z,99789.41
2022-08-19T07:03:58.174Z,99777.94
2022-08-19T07:06:43.273Z,99791.44
2022-08-19T07:09:18.642Z,99778.31
2022-08-19T07:11:48.782Z,99775.56
2022-08-19T07:14:20.288Z,99773.91
2022-08-19T07:16:50.007Z,99793.41
2022-08-19T07:19:19.523Z,99794.44
2022-08-19T07:21:49.015Z,99799.13
2022-08-19T07:24:20.593Z,99802.38
2022-08-19T07:26:51.672Z,99798.78
2022-08-19T07:29:24.195Z,99802.19
2022-08-19T07:31:57.188Z,99792.63
2022-08-19T07:34:26.921Z,99805.97
2022-08-19T07:36:56.572Z,99805.78
2022-08-19T07:39:29.603Z,99805.63
2022-08-19T07:41:59.923Z,99802.03
2022-08-19T07:44:28.258Z,99809.78
2022-08-19T07:46:58.841Z,99810.72
2022-08-19T07:49:27.113Z,99806.97
2022-08-19T07:51:58.100Z,99811.94
2022-08-19T07:54:29.231Z,99801.50
2022-08-19T07:56:57.713Z,99812.75
2022-08-19T07:59:26.543Z,99813.69
2022-08-19T08:01:55.024Z,99809.75
2022-08-19T08:04:41.231Z,99815.47
2022-08-19T08:07:31.552Z,99822.47
2022-08-19T08:10:03.360Z,99819.81
2022-08-19T08:12:36.373Z,99816.81
2022-08-19T08:15:12.727Z,99823.66
2022-08-19T08:17:49.044Z,99828.59
2022-08-19T08:20:18.855Z,99836.09
2022-08-19T08:23:06.020Z,99838.53
2022-08-19T08:25:37.454Z,99845.66
2022-08-19T08:28:09.692Z,99841.13
2022-08-19T08:30:45.195Z,99840.84
2022-08-19T08:33:13.962Z,99843.59
2022-08-19T08:35:44.293Z,99848.34
2022-08-19T08:38:13.171Z,99845.06
2022-08-19T08:40:46.983Z,99842.31
2022-08-19T08:43:24.281Z,99840.50
2022-08-19T08:45:57.402Z,99844.00
2022-08-19T08:48:33.591Z,99843.63
2022-08-19T08:51:07.103Z,99840.75
2022-08-19T08:53:41.854Z,99836.44
2022-08-19T08:56:14.090Z,99832.34
2022-08-19T08:58:56.518Z,99831.59
2022-08-19T09:01:25.007Z,99836.75
2022-08-19T09:04:03.099Z,99839.06
2022-08-19T09:06:40.829Z,99838.63
2022-08-19T09:09:19.002Z,99842.97
2022-08-19T09:11:58.840Z,99828.38
2022-08-19T09:14:54.324Z,99836.31
2022-08-19T09:17:32.100Z,99838.66
2022-08-19T09:20:05.943Z,99846.50
2022-08-19T09:22:37.993Z,99836.53
2022-08-19T09:25:07.312Z,99846.50
2022-08-19T09:27:42.524Z,99844.66
2022-08-19T09:30:25.673Z,99843.00
2022-08-19T09:32:54.762Z,99838.75
2022-08-19T09:35:24.398Z,99839.31
2022-08-19T09:37:57.766Z,99838.44
2022-08-19T09:40:30.125Z,99847.81
2022-08-19T09:43:01.593Z,99846.41
2022-08-19T09:45:29.791Z,99855.22
2022-08-19T09:47:58.954Z,99841.22
2022-08-19T09:50:27.233Z,99840.28
2022-08-19T09:52:57.543Z,99843.03
2022-08-19T09:55:32.070Z,99834.66
2022-08-19T09:58:03.650Z,99836.41
2022-08-19T10:00:33.022Z,99850.25
2022-08-19T10:03:01.321Z,99838.69
2022-08-19T10:05:48.438Z,99835.53
2022-08-19T10:08:18.551Z,99841.34
2022-08-19T10:10:49.707Z,99837.78
2022-08-19T10:13:26.450Z,99843.03
2022-08-19T10:15:57.252Z,99838.78
2022-08-19T10:18:26.810Z,99840.38
2022-08-19T10:21:08.712Z,99830.78
2022-08-19T10:23:38.413Z,99836.63
2022-08-19T10:26:07.602Z,99838.47
2022-08-19T10:28:39.293Z,99844.91
2022-08-19T10:31:09.241Z,99857.03
2022-08-19T10:33:53.466Z,99851.63
2022-08-19T10:36:24.582Z,99855.97
2022-08-19T10:38:58.465Z,99852.44
2022-08-19T10:41:29.792Z,99865.25
2022-08-19T10:44:04.120Z,99858.25
2022-08-19T10:46:34.102Z,99855.31
2022-08-19T10:49:03.522Z,99849.78
2022-08-19T10:51:49.559Z,99855.84
2022-08-19T10:54:31.226Z,99859.75
2022-08-19T10:57:00.594Z,99858.06
2022-08-19T10:59:35.776Z,99851.38
2022-08-19T11:02:07.690Z,99858.19
2022-08-19T11:04:35.985Z,99850.13
2022-08-19T11:07:04.611Z,99849.69
2022-08-19T11:09:34.215Z,99850.47
2022-08-19T11:12:04.978Z,99845.84
2022-08-19T11:14:35.802Z,99852.38
2022-08-19T11:17:05.762Z,99846.63
2022-08-19T11:19:34.552Z,99838.09
2022-08-19T11:22:04.359Z,99839.56
2022-08-19T11:24:34.152Z,99833.03
2022-08-19T11:27:05.809Z,99829.59
2022-08-19T11:29:35.832Z,99826.19
2022-08-19T11:32:07.700Z,99831.72
2022-08-19T11:34:36.352Z,99829.19
2022-08-19T11:37:06.690Z,99845.63
2022-08-19T11:39:38.067Z,99837.09
2022-08-19T11:42:29.003Z,99839.88
2022-08-19T11:44:58.662Z,99835.50
2022-08-19T11:47:27.194Z,99862.41
2022-08-19T11:49:55.467Z,99848.97
2022-08-19T11:52:23.573Z,99845.75
2022-08-19T11:54:51.883Z,99847.47
2022-08-19T11:57:20.811Z,99836.72
2022-08-19T11:59:51.422Z,99828.94
2022-08-19T12:02:22.604Z,99831.34
2022-08-19T12:04:51.013Z,99832.78
2022-08-19T12:07:19.908Z,99836.84
2022-08-19T12:09:48.826Z,99831.22
2022-08-19T12:12:17.893Z,99847.19
2022-08-19T12:14:47.544Z,99844.94
2022-08-19T12:17:16.208Z,99848.16
2022-08-19T12:19:45.772Z,99852.53
2022-08-19T12:22:13.811Z,99847.91
2022-08-19T12:24:41.911Z,99851.81
2022-08-19T12:27:12.876Z,99858.97
2022-08-19T12:29:42.436Z,99850.13
2022-08-19T12:32:12.094Z,99837.03
2022-08-19T12:34:41.420Z,99832.13
2022-08-19T12:37:11.943Z,99829.84
2022-08-19T12:39:43.419Z,99820.59
2022-08-19T12:42:12.812Z,99824.69
2022-08-19T12:44:42.704Z,99834.50
2022-08-19T12:47:12.482Z,99826.63
2022-08-19T12:49:53.548Z,99835.84
2022-08-19T12:52:26.211Z,99834.97
2022-08-19T12:54:56.222Z,99836.50
2022-08-19T12:57:32.530Z,99838.03
2022-08-19T13:00:04.879Z,99844.16
2022-08-19T13:02:38.485Z,99843.56
2022-08-19T13:05:12.299Z,99838.53
2022-08-19T13:07:44.695Z,99841.44
2022-08-19T13:10:16.375Z,99845.19
2022-08-19T13:12:45.612Z,99844.63
2022-08-19T13:15:15.176Z,99837.00
2022-08-19T13:17:44.132Z,99844.94
2022-08-19T13:20:13.534Z,99833.88
2022-08-19T13:22:43.314Z,99823.38
2022-08-19T13:25:12.362Z,99817.75
2022-08-19T13:27:41.919Z,99839.91
2022-08-19T13:30:30.172Z,99843.75
2022-08-19T13:33:16.290Z,99851.13
2022-08-19T13:35:48.792Z,99832.31
2022-08-19T13:38:21.377Z,99824.16
2022-08-19T13:40:51.425Z,99822.50
2022-08-19T13:43:23.841Z,99821.97
2022-08-19T13:45:57.418Z,99839.25
2022-08-19T13:48:27.912Z,99837.63
2022-08-19T13:50:57.145Z,99836.91
2022-08-19T13:53:26.701Z,99830.44
2022-08-19T13:55:55.451Z,99840.75
2022-08-19T13:58:24.581Z,99834.56
2022-08-19T14:00:52.892Z,99833.94
2022-08-19T14:03:21.152Z,99843.00
2022-08-19T14:05:49.385Z,99847.38
2022-08-19T14:08:19.195Z,99847.94
2022-08-19T14:10:49.554Z,99839.75
2022-08-19T14:13:22.163Z,99836.53
2022-08-19T14:15:51.312Z,99831.63
2022-08-19T14:18:20.402Z,99827.00
2022-08-19T14:20:48.672Z,99836.66
2022-08-19T14:23:16.722Z,99838.19
2022-08-19T14:25:45.721Z,99828.25
2022-08-19T14:28:15.231Z,99829.63
2022-08-19T14:30:45.476Z,99832.09
2022-08-19T14:33:15.233Z,99835.06
2022-08-19T14:35:46.532Z,99827.34
2022-08-19T14:38:18.743Z,99829.72
2022-08-19T14:40:58.234Z,99821.25
2022-08-19T14:43:27.773Z,99829.31
2022-08-19T14:45:57.952Z,99828.31
2022-08-19T14:48:29.034Z,99832.94
2022-08-19T14:50:57.635Z,99834.81
2022-08-19T14:53:25.670Z,99830.56
2022-08-19T14:55:53.802Z,99844.09
2022-08-19T14:58:29.026Z,99839.59
2022-08-19T15:01:01.066Z,99839.16
2022-08-19T15:03:29.962Z,99833.50
2022-08-19T15:05:59.115Z,99840.50
2022-08-19T15:08:29.242Z,99831.41
2022-08-19T15:10:58.512Z,99840.50
2022-08-19T15:13:28.282Z,99830.81
2022-08-19T15:15:56.473Z,99837.69
2022-08-19T15:18:26.690Z,99840.84
2022-08-19T15:20:55.943Z,99829.56
2022-08-19T15:23:24.532Z,99837.22
2022-08-19T15:25:55.840Z,99854.97
2022-08-19T15:28:25.403Z,99851.59
2022-08-19T15:30:54.833Z,99849.03
2022-08-19T15:33:23.021Z,99847.94
2022-08-19T15:35:54.164Z,99842.13
2022-08-19T15:38:23.875Z,99846.03
2022-08-19T15:40:51.952Z,99846.66
2022-08-19T15:43:22.384Z,99850.03
2022-08-19T15:45:50.602Z,99848.97
2022-08-19T15:48:18.922Z,99849.34
2022-08-19T15:50:46.914Z,99843.50
2022-08-19T15:53:17.152Z,99847.50
2022-08-19T15:55:48.530Z,99854.53
2022-08-19T15:58:34.753Z,99850.44
2022-08-19T16:01:24.009Z,99857.25
2022-08-19T16:04:14.520Z,99858.09
2022-08-19T16:06:47.000Z,99859.19
2022-08-19T16:09:17.083Z,99860.13
2022-08-19T16:11:56.149Z,99865.59
2022-08-19T16:14:26.524Z,99861.34
2022-08-19T16:16:56.803Z,99854.78
2022-08-19T16:19:26.315Z,99854.78
2022-08-19T16:21:56.482Z,99867.66
2022-08-19T16:24:29.844Z,99865.97
2022-08-19T16:26:58.453Z,99865.97
2022-08-19T16:29:34.406Z,99869.59
2022-08-19T16:32:12.650Z,99864.75
2022-08-19T16:34:42.305Z,99869.81
2022-08-19T16:37:11.063Z,99879.41
2022-08-19T16:39:41.230Z,99874.69
2022-08-19T16:42:14.041Z,99870.31
2022-08-19T16:44:45.055Z,99865.94
2022-08-19T16:47:15.373Z,99862.28
2022-08-19T16:49:54.572Z,99865.94
2022-08-19T16:52:27.133Z,99866.22
2022-08-19T16:54:56.775Z,99871.06
2022-08-19T16:57:25.040Z,99866.09
2022-08-19T16:59:53.881Z,99871.00
2022-08-19T17:02:23.674Z,99881.91
2022-08-19T17:04:59.321Z,99888.81
2022-08-19T17:07:28.129Z,99873.53
2022-08-19T17:09:58.385Z,99884.44
2022-08-19T17:12:35.466Z,99871.91
2022-08-19T17:15:08.328Z,99879.66
2022-08-19T17:17:37.154Z,99886.25
2022-08-19T17:20:06.480Z,99886.25
2022-08-19T17:22:35.900Z,99888.25
2022-08-19T17:25:05.990Z,99889.28
2022-08-19T17:27:34.222Z,99891.78
2022-08-19T17:30:03.014Z,99891.28
2022-08-19T17:32:35.112Z,99894.28
2022-08-19T17:35:04.753Z,99895.16
2022-08-19T17:37:34.272Z,99898.66
2022-08-19T17:40:03.244Z,99902.03
2022-08-19T17:42:32.735Z,99904.75
2022-08-19T17:45:00.992Z,99901.81
2022-08-19T17:47:29.943Z,99899.81
2022-08-19T17:49:58.242Z,99902.00
2022-08-19T17:52:26.643Z,99905.78
2022-08-19T17:54:54.783Z,99907.75
2022-08-19T17:57:22.932Z,99894.28
2022-08-19T17:59:52.652Z,99905.91
2022-08-19T18:02:22.055Z,99906.03
2022-08-19T18:04:50.740Z,99903.91
2022-08-19T18:07:21.530Z,99908.06
2022-08-19T18:09:52.983Z,99907.94
2022-08-19T18:12:24.962Z,99905.59
2022-08-19T18:14:54.402Z,99905.41
2022-08-19T18:17:23.391Z,99910.75
2022-08-19T18:19:51.973Z,99910.78
2022-08-19T18:22:26.679Z,99921.47
2022-08-19T18:24:55.742Z,99925.34
2022-08-19T18:27:24.032Z,99927.34
2022-08-19T18:29:52.553Z,99931.94
2022-08-19T18:32:24.060Z,99931.94
2022-08-19T18:34:52.532Z,99937.97
2022-08-19T18:37:21.111Z,99934.03
2022-08-19T18:40:07.148Z,99928.88
2022-08-19T18:42:53.061Z,99934.44
2022-08-19T18:45:38.792Z,99949.09
2022-08-19T18:48:27.997Z,99948.22
2022-08-19T18:50:58.113Z,99956.81
2022-08-19T18:53:28.423Z,99952.00
2022-08-19T18:55:56.870Z,99954.97
2022-08-19T18:58:33.751Z,99957.34
2022-08-19T19:01:09.136Z,99956.72
2022-08-19T19:03:39.942Z,99959.94
2022-08-19T19:06:08.634Z,99959.63
2022-08-19T19:08:37.442Z,99963.78
2022-08-19T19:11:06.203Z,99964.00
2022-08-19T19:13:35.549Z,99964.63
2022-08-19T19:16:04.122Z,99979.25
2022-08-19T19:18:33.385Z,99977.31
2022-08-19T19:21:02.953Z,99977.16
2022-08-19T19:23:31.174Z,99985.34
2022-08-19T19:26:00.529Z,99980.50
2022-08-19T19:28:28.870Z,99986.28
2022-08-19T19:30:59.175Z,99989.38
2022-08-19T19:33:27.953Z,99999.44
2022-08-19T19:35:56.542Z,99990.31
2022-08-19T19:38:26.241Z,99992.63
2022-08-19T19:40:54.482Z,99998.97
2022-08-19T19:43:22.872Z,99997.31
2022-08-19T19:45:52.083Z,100001.03
2022-08-19T19:48:20.582Z,100001.22
2022-08-19T19:50:54.293Z,100001.31
2022-08-19T19:53:27.569Z,100007.47
2022-08-19T19:55:59.802Z,100008.53
2022-08-19T19:58:29.325Z,100011.47
2022-08-19T20:00:59.472Z,100017.16
2022-08-19T20:03:29.979Z,100012.50
2022-08-19T20:05:59.594Z,100017.59
2022-08-19T20:08:46.812Z,100018.22
2022-08-19T20:11:25.924Z,100019.06
2022-08-19T20:13:54.349Z,100018.16
2022-08-19T20:16:23.062Z,100020.69
2022-08-19T20:18:51.292Z,100019.34
2022-08-19T20:21:25.851Z,100032.19
2022-08-19T20:24:09.172Z,100026.38
2022-08-19T20:26:38.882Z,100029.59
2022-08-19T20:29:37.901Z,100028.22
2022-08-19T20:31:59.132Z,100035.69
2022-08-19T20:34:28.747Z,100032.69
2022-08-19T20:36:57.064Z,100035.78
2022-08-19T20:39:26.592Z,100034.47
2022-08-19T20:41:56.369Z,100035.50
2022-08-19T20:44:25.913Z,100036.78
2022-08-19T20:46:56.085Z,100038.19
2022-08-19T20:49:27.470Z,100032.56
2022-08-19T20:51:56.737Z,100034.00
2022-08-19T20:54:26.977Z,100030.88
2022-08-19T20:56:56.064Z,100034.78
2022-08-19T20:59:25.887Z,100034.25
2022-08-19T21:01:55.582Z,100041.56
2022-08-19T21:04:24.452Z,100046.50
2022-08-19T21:06:52.502Z,100038.88
2022-08-19T21:09:20.813Z,100041.69
2022-08-19T21:11:51.212Z,100044.66
2022-08-19T21:14:19.782Z,100044.88
2022-08-19T21:16:49.261Z,100045.88
2022-08-19T21:19:22.022Z,100041.44
2022-08-19T21:21:52.142Z,100041.44
2022-08-19T21:24:20.541Z,100041.34
2022-08-19T21:26:51.399Z,100038.69
2022-08-19T21:29:20.022Z,100050.16
2022-08-19T21:31:49.005Z,100050.22
2022-08-19T21:34:17.623Z,100054.88
2022-08-19T21:36:45.895Z,100049.97
2022-08-19T21:39:14.322Z,100050.19
2022-08-19T21:41:43.813Z,100055.47
2022-08-19T21:44:13.452Z,100054.06
2022-08-19T21:46:42.113Z,100045.69
2022-08-19T21:49:10.153Z,100051.97
2022-08-19T21:51:38.373Z,100055.41
2022-08-19T21:54:07.154Z,100052.66
2022-08-19T21:56:42.203Z,100055.22
2022-08-19T21:59:10.343Z,100061.25
2022-08-19T22:01:39.822Z,100062.66
2022-08-19T22:04:08.143Z,100058.03
2022-08-19T22:06:36.562Z,100067.47
2022-08-19T22:09:05.332Z,100062.97
2022-08-19T22:11:33.922Z,100063.88
2022-08-19T22:14:03.885Z,100071.06
2022-08-19T22:16:33.812Z,100071.22
2022-08-19T22:19:03.132Z,100067.63
2022-08-19T22:21:39.631Z,100069.50
2022-08-19T22:24:09.833Z,100066.88
2022-08-19T22:26:38.031Z,100064.22
2022-08-19T22:29:07.110Z,100066.06
2022-08-19T22:31:35.833Z,100066.06
2022-08-19T22:34:06.058Z,100060.78
2022-08-19T22:36:34.662Z,100060.78
2022-08-19T22:39:03.652Z,100070.50
2022-08-19T22:41:33.659Z,100069.56
2022-08-19T22:44:02.042Z,100067.00
2022-08-19T22:46:34.317Z,100069.81
2022-08-19T22:49:02.614Z,100071.53
2022-08-19T22:51:49.893Z,100071.53
2022-08-19T22:54:18.523Z,100071.44
2022-08-19T22:56:46.813Z,100079.38
2022-08-19T22:59:15.002Z,100079.44
2022-08-19T23:01:43.239Z,100072.38
2022-08-19T23:04:11.949Z,100071.53
2022-08-19T23:06:42.337Z,100076.63
2022-08-19T23:09:16.670Z,100072.16
2022-08-19T23:11:45.714Z,100063.28
2022-08-19T23:14:14.375Z,100074.81
2022-08-19T23:16:42.896Z,100074.00
2022-08-19T23:19:11.852Z,100078.50
2022-08-19T23:21:42.782Z,100077.78
2022-08-19T23:24:12.184Z,100070.16
2022-08-19T23:27:02.341Z,100077.56
2022-08-19T23:29:48.531Z,100071.78
2022-08-19T23:32:17.453Z,100071.16
2022-08-19T23:34:46.171Z,100069.66
2022-08-19T23:37:15.694Z,100076.00
2022-08-19T23:39:45.391Z,100076.19
2022-08-19T23:42:13.865Z,100071.88
2022-08-19T23:44:52.089Z,100061.47
2022-08-19T23:47:22.006Z,100066.09
2022-08-19T23:49:50.616Z,100056.59
2022-08-19T23:52:20.762Z,100060.34
2022-08-19T23:54:49.061Z,100064.75
2022-08-19T23:57:17.472Z,100049.75
2022-08-19T23:59:46.231Z,100056.75
